sensor_id;sensor_type;location;lat;lon;timestamp;P1;durP1;ratioP1;P2;durP2;ratioP2
52918;SDS011;38793;52.690;6.812;2023-06-24T00:01:19;5.22;;;4.45;;
52918;SDS011;38793;52.690;6.812;2023-06-24T00:03:44;4.57;;;4.05;;
52918;SDS011;38793;52.690;6.812;2023-06-24T00:06:12;4.47;;;4.07;;
52918;SDS011;38793;52.690;6.812;2023-06-24T00:08:46;6.25;;;5.65;;
52918;SDS011;38793;52.690;6.812;2023-06-24T00:11:12;6.68;;;5.05;;
52918;SDS011;38793;52.690;6.812;2023-06-24T00:13:41;7.65;;;5.63;;
52918;SDS011;38793;52.690;6.812;2023-06-24T00:16:08;5.70;;;5.20;;
52918;SDS011;38793;52.690;6.812;2023-06-24T00:18:34;8.25;;;6.03;;
52918;SDS011;38793;52.690;6.812;2023-06-24T00:21:01;6.15;;;5.47;;
52918;SDS011;38793;52.690;6.812;2023-06-24T00:23:27;20.45;;;6.07;;
52918;SDS011;38793;52.690;6.812;2023-06-24T00:25:55;5.93;;;5.45;;
52918;SDS011;38793;52.690;6.812;2023-06-24T00:28:21;7.13;;;6.40;;
52918;SDS011;38793;52.690;6.812;2023-06-24T00:30:47;7.68;;;6.78;;
52918;SDS011;38793;52.690;6.812;2023-06-24T00:33:14;7.35;;;6.22;;
52918;SDS011;38793;52.690;6.812;2023-06-24T00:35:40;4.22;;;4.03;;
52918;SDS011;38793;52.690;6.812;2023-06-24T00:38:07;5.40;;;3.25;;
52918;SDS011;38793;52.690;6.812;2023-06-24T00:40:32;2.78;;;2.58;;
52918;SDS011;38793;52.690;6.812;2023-06-24T00:42:58;3.78;;;3.58;;
52918;SDS011;38793;52.690;6.812;2023-06-24T00:45:26;4.93;;;4.47;;
52918;SDS011;38793;52.690;6.812;2023-06-24T00:47:52;6.28;;;5.68;;
52918;SDS011;38793;52.690;6.812;2023-06-24T00:50:19;6.82;;;5.78;;
52918;SDS011;38793;52.690;6.812;2023-06-24T00:52:45;6.85;;;5.75;;
52918;SDS011;38793;52.690;6.812;2023-06-24T00:55:12;10.23;;;6.50;;
52918;SDS011;38793;52.690;6.812;2023-06-24T00:57:43;7.18;;;6.25;;
52918;SDS011;38793;52.690;6.812;2023-06-24T01:00:10;6.07;;;5.30;;
52918;SDS011;38793;52.690;6.812;2023-06-24T01:02:40;7.50;;;6.78;;
52918;SDS011;38793;52.690;6.812;2023-06-24T01:05:07;9.18;;;7.00;;
52918;SDS011;38793;52.690;6.812;2023-06-24T01:07:33;10.55;;;7.93;;
52918;SDS011;38793;52.690;6.812;2023-06-24T01:10:02;9.85;;;8.00;;
52918;SDS011;38793;52.690;6.812;2023-06-24T01:12:31;8.68;;;7.75;;
52918;SDS011;38793;52.690;6.812;2023-06-24T01:14:59;10.82;;;9.73;;
52918;SDS011;38793;52.690;6.812;2023-06-24T01:22:48;4.05;;;3.70;;
52918;SDS011;38793;52.690;6.812;2023-06-24T01:34:02;4.85;;;4.35;;
52918;SDS011;38793;52.690;6.812;2023-06-24T01:36:31;4.32;;;4.03;;
52918;SDS011;38793;52.690;6.812;2023-06-24T01:39:04;4.35;;;4.05;;
52918;SDS011;38793;52.690;6.812;2023-06-24T01:41:34;4.55;;;3.50;;
52918;SDS011;38793;52.690;6.812;2023-06-24T01:44:09;3.47;;;2.33;;
52918;SDS011;38793;52.690;6.812;2023-06-24T01:46:39;2.58;;;2.38;;
52918;SDS011;38793;52.690;6.812;2023-06-24T01:49:07;3.17;;;2.97;;
52918;SDS011;38793;52.690;6.812;2023-06-24T01:51:36;3.95;;;2.75;;
52918;SDS011;38793;52.690;6.812;2023-06-24T01:54:06;5.07;;;4.68;;
52918;SDS011;38793;52.690;6.812;2023-06-24T01:56:35;5.95;;;5.43;;
52918;SDS011;38793;52.690;6.812;2023-06-24T01:59:02;9.35;;;5.95;;
52918;SDS011;38793;52.690;6.812;2023-06-24T02:01:29;7.60;;;5.85;;
52918;SDS011;38793;52.690;6.812;2023-06-24T02:03:58;7.10;;;6.28;;
52918;SDS011;38793;52.690;6.812;2023-06-24T02:06:26;8.52;;;6.93;;
52918;SDS011;38793;52.690;6.812;2023-06-24T02:08:54;7.93;;;7.22;;
52918;SDS011;38793;52.690;6.812;2023-06-24T02:11:23;8.73;;;7.00;;
52918;SDS011;38793;52.690;6.812;2023-06-24T02:13:51;9.15;;;6.65;;
52918;SDS011;38793;52.690;6.812;2023-06-24T02:16:19;9.88;;;6.53;;
52918;SDS011;38793;52.690;6.812;2023-06-24T02:18:46;7.43;;;6.75;;
52918;SDS011;38793;52.690;6.812;2023-06-24T02:21:13;11.25;;;6.95;;
52918;SDS011;38793;52.690;6.812;2023-06-24T02:23:42;7.13;;;6.20;;
52918;SDS011;38793;52.690;6.812;2023-06-24T02:26:09;5.72;;;5.18;;
52918;SDS011;38793;52.690;6.812;2023-06-24T02:28:35;6.85;;;5.28;;
52918;SDS011;38793;52.690;6.812;2023-06-24T02:31:03;7.68;;;6.43;;
52918;SDS011;38793;52.690;6.812;2023-06-24T02:33:30;6.63;;;6.03;;
52918;SDS011;38793;52.690;6.812;2023-06-24T02:35:56;6.38;;;4.95;;
52918;SDS011;38793;52.690;6.812;2023-06-24T02:38:21;3.75;;;3.53;;
52918;SDS011;38793;52.690;6.812;2023-06-24T02:40:47;4.85;;;4.45;;
52918;SDS011;38793;52.690;6.812;2023-06-24T02:43:14;6.95;;;4.35;;
52918;SDS011;38793;52.690;6.812;2023-06-24T02:45:40;9.32;;;6.72;;
52918;SDS011;38793;52.690;6.812;2023-06-24T02:48:06;8.00;;;7.20;;
52918;SDS011;38793;52.690;6.812;2023-06-24T02:50:34;11.55;;;8.45;;
52918;SDS011;38793;52.690;6.812;2023-06-24T02:53:00;11.25;;;10.10;;
52918;SDS011;38793;52.690;6.812;2023-06-24T02:55:27;11.50;;;10.30;;
52918;SDS011;38793;52.690;6.812;2023-06-24T02:57:53;13.43;;;9.27;;
52918;SDS011;38793;52.690;6.812;2023-06-24T03:00:20;19.25;;;11.50;;
52918;SDS011;38793;52.690;6.812;2023-06-24T03:02:46;11.75;;;10.60;;
52918;SDS011;38793;52.690;6.812;2023-06-24T03:05:13;13.85;;;10.57;;
52918;SDS011;38793;52.690;6.812;2023-06-24T03:07:40;13.88;;;9.85;;
52918;SDS011;38793;52.690;6.812;2023-06-24T03:10:07;11.50;;;10.35;;
52918;SDS011;38793;52.690;6.812;2023-06-24T03:12:33;10.68;;;9.65;;
52918;SDS011;38793;52.690;6.812;2023-06-24T03:14:58;10.82;;;9.55;;
52918;SDS011;38793;52.690;6.812;2023-06-24T03:17:25;9.07;;;7.68;;
52918;SDS011;38793;52.690;6.812;2023-06-24T03:19:51;9.68;;;8.77;;
52918;SDS011;38793;52.690;6.812;2023-06-24T03:22:17;14.73;;;9.27;;
52918;SDS011;38793;52.690;6.812;2023-06-24T03:24:43;13.27;;;8.95;;
52918;SDS011;38793;52.690;6.812;2023-06-24T03:27:08;8.73;;;7.60;;
52918;SDS011;38793;52.690;6.812;2023-06-24T03:29:34;13.82;;;9.27;;
52918;SDS011;38793;52.690;6.812;2023-06-24T03:32:00;13.38;;;9.75;;
52918;SDS011;38793;52.690;6.812;2023-06-24T03:34:25;11.43;;;10.02;;
52918;SDS011;38793;52.690;6.812;2023-06-24T03:39:19;10.95;;;9.85;;
52918;SDS011;38793;52.690;6.812;2023-06-24T03:41:45;13.82;;;9.77;;
52918;SDS011;38793;52.690;6.812;2023-06-24T03:44:11;11.25;;;9.90;;
52918;SDS011;38793;52.690;6.812;2023-06-24T03:46:36;12.02;;;10.75;;
52918;SDS011;38793;52.690;6.812;2023-06-24T03:49:02;11.68;;;10.00;;
52918;SDS011;38793;52.690;6.812;2023-06-24T03:51:28;12.20;;;9.25;;
52918;SDS011;38793;52.690;6.812;2023-06-24T03:53:54;15.25;;;8.40;;
52918;SDS011;38793;52.690;6.812;2023-06-24T03:56:19;10.63;;;8.80;;
52918;SDS011;38793;52.690;6.812;2023-06-24T03:58:45;11.18;;;9.38;;
52918;SDS011;38793;52.690;6.812;2023-06-24T04:01:10;18.73;;;12.52;;
52918;SDS011;38793;52.690;6.812;2023-06-24T04:03:36;16.70;;;13.02;;
52918;SDS011;38793;52.690;6.812;2023-06-24T04:06:02;17.83;;;13.45;;
52918;SDS011;38793;52.690;6.812;2023-06-24T04:08:27;18.05;;;13.30;;
52918;SDS011;38793;52.690;6.812;2023-06-24T04:10:57;14.02;;;12.63;;
52918;SDS011;38793;52.690;6.812;2023-06-24T04:13:28;19.27;;;14.63;;
52918;SDS011;38793;52.690;6.812;2023-06-24T04:15:54;16.48;;;13.35;;
52918;SDS011;38793;52.690;6.812;2023-06-24T04:18:19;20.90;;;13.07;;
52918;SDS011;38793;52.690;6.812;2023-06-24T04:20:45;20.67;;;14.40;;
52918;SDS011;38793;52.690;6.812;2023-06-24T04:23:11;15.05;;;13.50;;
52918;SDS011;38793;52.690;6.812;2023-06-24T04:25:39;15.45;;;13.82;;
52918;SDS011;38793;52.690;6.812;2023-06-24T04:28:05;16.25;;;13.85;;
52918;SDS011;38793;52.690;6.812;2023-06-24T04:30:31;18.73;;;13.63;;
52918;SDS011;38793;52.690;6.812;2023-06-24T04:32:57;17.17;;;13.68;;
52918;SDS011;38793;52.690;6.812;2023-06-24T04:35:24;16.80;;;13.50;;
52918;SDS011;38793;52.690;6.812;2023-06-24T04:37:49;18.27;;;14.30;;
52918;SDS011;38793;52.690;6.812;2023-06-24T04:40:17;16.88;;;13.98;;
52918;SDS011;38793;52.690;6.812;2023-06-24T04:42:43;20.60;;;15.10;;
52918;SDS011;38793;52.690;6.812;2023-06-24T04:45:09;23.17;;;14.57;;
52918;SDS011;38793;52.690;6.812;2023-06-24T04:47:35;24.50;;;15.20;;
52918;SDS011;38793;52.690;6.812;2023-06-24T04:50:01;17.05;;;14.68;;
52918;SDS011;38793;52.690;6.812;2023-06-24T04:52:27;16.08;;;14.38;;
52918;SDS011;38793;52.690;6.812;2023-06-24T04:54:52;20.23;;;14.60;;
52918;SDS011;38793;52.690;6.812;2023-06-24T04:57:28;19.77;;;16.25;;
52918;SDS011;38793;52.690;6.812;2023-06-24T04:59:55;18.77;;;15.02;;
52918;SDS011;38793;52.690;6.812;2023-06-24T05:02:22;18.27;;;14.27;;
52918;SDS011;38793;52.690;6.812;2023-06-24T05:04:47;17.83;;;14.55;;
52918;SDS011;38793;52.690;6.812;2023-06-24T05:07:13;21.10;;;15.70;;
52918;SDS011;38793;52.690;6.812;2023-06-24T05:09:39;19.08;;;16.42;;
52918;SDS011;38793;52.690;6.812;2023-06-24T05:12:04;16.80;;;15.10;;
52918;SDS011;38793;52.690;6.812;2023-06-24T05:14:31;24.63;;;17.15;;
52918;SDS011;38793;52.690;6.812;2023-06-24T05:16:56;23.77;;;18.00;;
52918;SDS011;38793;52.690;6.812;2023-06-24T05:19:22;17.63;;;15.82;;
52918;SDS011;38793;52.690;6.812;2023-06-24T05:21:47;19.65;;;15.57;;
52918;SDS011;38793;52.690;6.812;2023-06-24T05:24:13;17.60;;;15.57;;
52918;SDS011;38793;52.690;6.812;2023-06-24T05:26:38;18.55;;;13.30;;
52918;SDS011;38793;52.690;6.812;2023-06-24T05:29:04;21.33;;;15.05;;
52918;SDS011;38793;52.690;6.812;2023-06-24T05:31:30;18.55;;;15.77;;
52918;SDS011;38793;52.690;6.812;2023-06-24T05:33:55;16.52;;;14.25;;
52918;SDS011;38793;52.690;6.812;2023-06-24T05:36:21;17.25;;;14.70;;
52918;SDS011;38793;52.690;6.812;2023-06-24T05:38:47;18.00;;;14.55;;
52918;SDS011;38793;52.690;6.812;2023-06-24T05:41:13;16.30;;;14.27;;
52918;SDS011;38793;52.690;6.812;2023-06-24T05:43:39;19.85;;;13.88;;
52918;SDS011;38793;52.690;6.812;2023-06-24T05:46:07;17.20;;;14.15;;
52918;SDS011;38793;52.690;6.812;2023-06-24T05:48:33;16.92;;;13.20;;
52918;SDS011;38793;52.690;6.812;2023-06-24T05:50:58;18.40;;;13.00;;
52918;SDS011;38793;52.690;6.812;2023-06-24T05:55:50;14.25;;;12.75;;
52918;SDS011;38793;52.690;6.812;2023-06-24T05:58:15;15.85;;;12.70;;
52918;SDS011;38793;52.690;6.812;2023-06-24T06:00:41;15.32;;;13.30;;
52918;SDS011;38793;52.690;6.812;2023-06-24T06:03:07;17.80;;;13.35;;
52918;SDS011;38793;52.690;6.812;2023-06-24T06:07:58;15.45;;;12.82;;
52918;SDS011;38793;52.690;6.812;2023-06-24T06:10:23;18.13;;;11.57;;
52918;SDS011;38793;52.690;6.812;2023-06-24T06:12:49;12.02;;;10.80;;
52918;SDS011;38793;52.690;6.812;2023-06-24T06:15:15;18.65;;;12.02;;
52918;SDS011;38793;52.690;6.812;2023-06-24T06:17:40;13.63;;;11.75;;
52918;SDS011;38793;52.690;6.812;2023-06-24T06:22:32;13.85;;;11.75;;
52918;SDS011;38793;52.690;6.812;2023-06-24T06:25:02;19.77;;;13.05;;
52918;SDS011;38793;52.690;6.812;2023-06-24T06:27:29;12.90;;;11.57;;
52918;SDS011;38793;52.690;6.812;2023-06-24T06:29:55;14.20;;;12.77;;
52918;SDS011;38793;52.690;6.812;2023-06-24T06:34:46;17.05;;;12.38;;
52918;SDS011;38793;52.690;6.812;2023-06-24T06:39:37;15.23;;;11.27;;
52918;SDS011;38793;52.690;6.812;2023-06-24T06:42:02;14.57;;;12.15;;
52918;SDS011;38793;52.690;6.812;2023-06-24T06:46:53;12.60;;;10.90;;
52918;SDS011;38793;52.690;6.812;2023-06-24T06:51:44;17.30;;;10.82;;
52918;SDS011;38793;52.690;6.812;2023-06-24T06:56:35;15.18;;;11.00;;
52918;SDS011;38793;52.690;6.812;2023-06-24T07:01:26;13.90;;;12.45;;
52918;SDS011;38793;52.690;6.812;2023-06-24T07:06:18;15.88;;;11.43;;
52918;SDS011;38793;52.690;6.812;2023-06-24T07:08:44;12.35;;;11.02;;
52918;SDS011;38793;52.690;6.812;2023-06-24T07:11:11;14.95;;;11.38;;
52918;SDS011;38793;52.690;6.812;2023-06-24T07:16:02;16.00;;;11.07;;
52918;SDS011;38793;52.690;6.812;2023-06-24T07:20:55;11.73;;;10.25;;
52918;SDS011;38793;52.690;6.812;2023-06-24T07:23:21;12.13;;;10.32;;
52918;SDS011;38793;52.690;6.812;2023-06-24T07:28:12;12.90;;;10.13;;
52918;SDS011;38793;52.690;6.812;2023-06-24T07:30:38;13.55;;;10.73;;
52918;SDS011;38793;52.690;6.812;2023-06-24T07:33:05;17.35;;;10.90;;
52918;SDS011;38793;52.690;6.812;2023-06-24T07:37:57;12.07;;;10.88;;
52918;SDS011;38793;52.690;6.812;2023-06-24T07:42:48;14.55;;;11.15;;
52918;SDS011;38793;52.690;6.812;2023-06-24T07:47:39;14.32;;;9.93;;
52918;SDS011;38793;52.690;6.812;2023-06-24T07:50:05;12.60;;;10.70;;
52918;SDS011;38793;52.690;6.812;2023-06-24T07:54:56;13.45;;;10.32;;
52918;SDS011;38793;52.690;6.812;2023-06-24T07:57:23;11.70;;;9.95;;
52918;SDS011;38793;52.690;6.812;2023-06-24T08:02:14;14.27;;;10.23;;
52918;SDS011;38793;52.690;6.812;2023-06-24T08:04:40;13.05;;;10.52;;
52918;SDS011;38793;52.690;6.812;2023-06-24T08:07:06;12.48;;;9.73;;
52918;SDS011;38793;52.690;6.812;2023-06-24T08:09:31;13.45;;;10.73;;
52918;SDS011;38793;52.690;6.812;2023-06-24T08:11:57;11.13;;;10.00;;
52918;SDS011;38793;52.690;6.812;2023-06-24T08:14:22;18.73;;;11.10;;
52918;SDS011;38793;52.690;6.812;2023-06-24T08:16:48;11.15;;;9.95;;
52918;SDS011;38793;52.690;6.812;2023-06-24T08:19:14;16.45;;;10.07;;
52918;SDS011;38793;52.690;6.812;2023-06-24T08:21:39;12.13;;;10.27;;
52918;SDS011;38793;52.690;6.812;2023-06-24T08:24:06;12.55;;;10.38;;
52918;SDS011;38793;52.690;6.812;2023-06-24T08:26:32;15.98;;;9.43;;
52918;SDS011;38793;52.690;6.812;2023-06-24T08:28:57;11.45;;;10.32;;
52918;SDS011;38793;52.690;6.812;2023-06-24T08:31:24;13.35;;;10.10;;
52918;SDS011;38793;52.690;6.812;2023-06-24T08:33:53;14.75;;;10.45;;
52918;SDS011;38793;52.690;6.812;2023-06-24T08:36:21;15.52;;;11.90;;
52918;SDS011;38793;52.690;6.812;2023-06-24T08:38:48;12.93;;;11.55;;
52918;SDS011;38793;52.690;6.812;2023-06-24T08:41:14;15.57;;;11.63;;
52918;SDS011;38793;52.690;6.812;2023-06-24T08:43:39;11.95;;;10.55;;
52918;SDS011;38793;52.690;6.812;2023-06-24T08:46:05;12.75;;;10.70;;
52918;SDS011;38793;52.690;6.812;2023-06-24T08:48:31;14.27;;;11.00;;
52918;SDS011;38793;52.690;6.812;2023-06-24T08:51:04;12.48;;;11.18;;
52918;SDS011;38793;52.690;6.812;2023-06-24T08:53:32;14.10;;;11.30;;
52918;SDS011;38793;52.690;6.812;2023-06-24T08:55:59;16.00;;;12.00;;
52918;SDS011;38793;52.690;6.812;2023-06-24T08:58:25;14.90;;;11.95;;
52918;SDS011;38793;52.690;6.812;2023-06-24T09:00:51;11.07;;;9.98;;
52918;SDS011;38793;52.690;6.812;2023-06-24T09:03:17;14.95;;;10.82;;
52918;SDS011;38793;52.690;6.812;2023-06-24T09:05:43;15.30;;;12.23;;
52918;SDS011;38793;52.690;6.812;2023-06-24T09:08:09;14.70;;;11.90;;
52918;SDS011;38793;52.690;6.812;2023-06-24T09:10:36;14.70;;;13.27;;
52918;SDS011;38793;52.690;6.812;2023-06-24T09:13:02;14.80;;;11.45;;
52918;SDS011;38793;52.690;6.812;2023-06-24T09:15:30;15.35;;;12.40;;
52918;SDS011;38793;52.690;6.812;2023-06-24T09:18:03;15.82;;;11.52;;
52918;SDS011;38793;52.690;6.812;2023-06-24T09:20:30;13.32;;;12.00;;
52918;SDS011;38793;52.690;6.812;2023-06-24T09:22:57;15.98;;;10.95;;
52918;SDS011;38793;52.690;6.812;2023-06-24T09:25:24;13.30;;;12.02;;
52918;SDS011;38793;52.690;6.812;2023-06-24T09:27:50;17.52;;;12.38;;
52918;SDS011;38793;52.690;6.812;2023-06-24T09:30:21;12.45;;;11.15;;
52918;SDS011;38793;52.690;6.812;2023-06-24T09:32:48;12.23;;;10.65;;
52918;SDS011;38793;52.690;6.812;2023-06-24T09:35:14;16.73;;;9.52;;
52918;SDS011;38793;52.690;6.812;2023-06-24T09:37:48;13.40;;;12.07;;
52918;SDS011;38793;52.690;6.812;2023-06-24T09:40:17;14.32;;;10.77;;
52918;SDS011;38793;52.690;6.812;2023-06-24T09:42:53;11.05;;;8.77;;
52918;SDS011;38793;52.690;6.812;2023-06-24T09:45:24;11.25;;;7.63;;
52918;SDS011;38793;52.690;6.812;2023-06-24T09:47:54;7.55;;;6.60;;
52918;SDS011;38793;52.690;6.812;2023-06-24T09:50:21;5.85;;;5.35;;
52918;SDS011;38793;52.690;6.812;2023-06-24T09:52:47;9.63;;;6.80;;
52918;SDS011;38793;52.690;6.812;2023-06-24T09:55:14;9.15;;;7.00;;
52918;SDS011;38793;52.690;6.812;2023-06-24T09:57:44;9.20;;;7.07;;
52918;SDS011;38793;52.690;6.812;2023-06-24T10:00:11;13.93;;;6.85;;
52918;SDS011;38793;52.690;6.812;2023-06-24T10:02:40;10.20;;;4.38;;
52918;SDS011;38793;52.690;6.812;2023-06-24T10:05:06;8.90;;;6.95;;
52918;SDS011;38793;52.690;6.812;2023-06-24T10:07:32;7.68;;;6.45;;
52918;SDS011;38793;52.690;6.812;2023-06-24T10:10:00;8.88;;;3.83;;
52918;SDS011;38793;52.690;6.812;2023-06-24T10:12:28;14.23;;;3.08;;
52918;SDS011;38793;52.690;6.812;2023-06-24T10:14:53;4.15;;;3.28;;
52918;SDS011;38793;52.690;6.812;2023-06-24T10:17:19;4.07;;;2.92;;
52918;SDS011;38793;52.690;6.812;2023-06-24T10:19:45;4.80;;;3.15;;
52918;SDS011;38793;52.690;6.812;2023-06-24T10:22:10;5.93;;;3.60;;
52918;SDS011;38793;52.690;6.812;2023-06-24T10:24:40;6.25;;;4.53;;
52918;SDS011;38793;52.690;6.812;2023-06-24T10:27:08;4.82;;;3.55;;
52918;SDS011;38793;52.690;6.812;2023-06-24T10:29:38;5.60;;;5.03;;
52918;SDS011;38793;52.690;6.812;2023-06-24T10:32:07;6.28;;;5.45;;
52918;SDS011;38793;52.690;6.812;2023-06-24T10:39:57;16.35;;;6.18;;
52918;SDS011;38793;52.690;6.812;2023-06-24T10:42:24;5.93;;;4.72;;
52918;SDS011;38793;52.690;6.812;2023-06-24T10:45:00;5.55;;;4.45;;
52918;SDS011;38793;52.690;6.812;2023-06-24T10:47:35;5.13;;;3.95;;
52918;SDS011;38793;52.690;6.812;2023-06-24T10:50:02;6.50;;;2.70;;
52918;SDS011;38793;52.690;6.812;2023-06-24T10:52:28;4.10;;;2.10;;
52918;SDS011;38793;52.690;6.812;2023-06-24T10:54:55;2.47;;;2.22;;
52918;SDS011;38793;52.690;6.812;2023-06-24T10:57:25;7.50;;;2.85;;
52918;SDS011;38793;52.690;6.812;2023-06-24T10:59:53;4.07;;;1.88;;
52918;SDS011;38793;52.690;6.812;2023-06-24T11:02:20;3.03;;;2.03;;
52918;SDS011;38793;52.690;6.812;2023-06-24T11:04:53;9.10;;;1.83;;
52918;SDS011;38793;52.690;6.812;2023-06-24T11:07:21;4.40;;;1.60;;
52918;SDS011;38793;52.690;6.812;2023-06-24T11:09:48;5.00;;;2.40;;
52918;SDS011;38793;52.690;6.812;2023-06-24T11:12:15;5.93;;;2.28;;
52918;SDS011;38793;52.690;6.812;2023-06-24T11:14:41;4.63;;;1.85;;
52918;SDS011;38793;52.690;6.812;2023-06-24T11:17:07;2.95;;;2.25;;
52918;SDS011;38793;52.690;6.812;2023-06-24T11:19:32;8.30;;;2.42;;
52918;SDS011;38793;52.690;6.812;2023-06-24T11:22:02;8.65;;;2.72;;
52918;SDS011;38793;52.690;6.812;2023-06-24T11:24:28;3.80;;;3.40;;
52918;SDS011;38793;52.690;6.812;2023-06-24T11:26:54;3.97;;;2.58;;
52918;SDS011;38793;52.690;6.812;2023-06-24T11:29:20;4.57;;;2.97;;
52918;SDS011;38793;52.690;6.812;2023-06-24T11:31:46;5.45;;;3.47;;
52918;SDS011;38793;52.690;6.812;2023-06-24T11:34:11;3.72;;;2.45;;
52918;SDS011;38793;52.690;6.812;2023-06-24T11:36:37;2.95;;;2.00;;
52918;SDS011;38793;52.690;6.812;2023-06-24T11:39:03;3.30;;;2.08;;
52918;SDS011;38793;52.690;6.812;2023-06-24T11:41:29;4.32;;;2.20;;
52918;SDS011;38793;52.690;6.812;2023-06-24T11:43:56;3.33;;;1.85;;
52918;SDS011;38793;52.690;6.812;2023-06-24T11:46:33;2.33;;;2.13;;
52918;SDS011;38793;52.690;6.812;2023-06-24T11:49:04;1.63;;;1.42;;
52918;SDS011;38793;52.690;6.812;2023-06-24T11:51:30;3.15;;;2.40;;
52918;SDS011;38793;52.690;6.812;2023-06-24T11:53:58;5.80;;;2.13;;
52918;SDS011;38793;52.690;6.812;2023-06-24T11:59:00;2.55;;;2.20;;
52918;SDS011;38793;52.690;6.812;2023-06-24T12:01:31;4.55;;;3.08;;
52918;SDS011;38793;52.690;6.812;2023-06-24T12:04:15;2.90;;;2.28;;
52918;SDS011;38793;52.690;6.812;2023-06-24T12:06:41;1.92;;;1.73;;
52918;SDS011;38793;52.690;6.812;2023-06-24T12:09:08;3.92;;;2.10;;
52918;SDS011;38793;52.690;6.812;2023-06-24T12:11:34;2.45;;;1.30;;
52918;SDS011;38793;52.690;6.812;2023-06-24T12:14:00;4.07;;;2.03;;
52918;SDS011;38793;52.690;6.812;2023-06-24T12:16:26;2.80;;;1.77;;
52918;SDS011;38793;52.690;6.812;2023-06-24T12:18:52;4.15;;;2.13;;
52918;SDS011;38793;52.690;6.812;2023-06-24T12:21:18;4.22;;;2.67;;
52918;SDS011;38793;52.690;6.812;2023-06-24T12:23:44;2.72;;;2.35;;
52918;SDS011;38793;52.690;6.812;2023-06-24T12:26:09;2.70;;;2.13;;
52918;SDS011;38793;52.690;6.812;2023-06-24T12:28:35;3.50;;;1.92;;
52918;SDS011;38793;52.690;6.812;2023-06-24T12:31:01;2.38;;;2.17;;
52918;SDS011;38793;52.690;6.812;2023-06-24T12:33:27;4.15;;;2.13;;
52918;SDS011;38793;52.690;6.812;2023-06-24T12:35:53;1.80;;;1.60;;
52918;SDS011;38793;52.690;6.812;2023-06-24T12:38:18;3.58;;;2.83;;
52918;SDS011;38793;52.690;6.812;2023-06-24T12:40:44;2.95;;;2.65;;
52918;SDS011;38793;52.690;6.812;2023-06-24T12:43:10;1.98;;;1.70;;
52918;SDS011;38793;52.690;6.812;2023-06-24T12:45:37;3.40;;;3.10;;
52918;SDS011;38793;52.690;6.812;2023-06-24T12:48:03;4.15;;;1.85;;
52918;SDS011;38793;52.690;6.812;2023-06-24T12:50:29;2.58;;;2.38;;
52918;SDS011;38793;52.690;6.812;2023-06-24T12:52:56;2.58;;;2.15;;
52918;SDS011;38793;52.690;6.812;2023-06-24T12:55:22;3.53;;;2.47;;
52918;SDS011;38793;52.690;6.812;2023-06-24T12:57:48;3.38;;;1.95;;
52918;SDS011;38793;52.690;6.812;2023-06-24T13:00:14;4.70;;;2.42;;
52918;SDS011;38793;52.690;6.812;2023-06-24T13:02:40;2.28;;;2.08;;
52918;SDS011;38793;52.690;6.812;2023-06-24T13:05:05;4.05;;;2.65;;
52918;SDS011;38793;52.690;6.812;2023-06-24T13:07:31;2.75;;;2.50;;
52918;SDS011;38793;52.690;6.812;2023-06-24T13:09:57;6.88;;;2.75;;
52918;SDS011;38793;52.690;6.812;2023-06-24T13:12:24;4.80;;;3.00;;
52918;SDS011;38793;52.690;6.812;2023-06-24T13:14:49;3.97;;;2.95;;
52918;SDS011;38793;52.690;6.812;2023-06-24T13:17:15;4.88;;;3.00;;
52918;SDS011;38793;52.690;6.812;2023-06-24T13:19:41;4.15;;;2.80;;
52918;SDS011;38793;52.690;6.812;2023-06-24T13:22:06;5.65;;;3.28;;
52918;SDS011;38793;52.690;6.812;2023-06-24T13:24:32;6.72;;;2.42;;
52918;SDS011;38793;52.690;6.812;2023-06-24T13:26:57;3.67;;;2.70;;
52918;SDS011;38793;52.690;6.812;2023-06-24T13:29:23;5.15;;;2.33;;
52918;SDS011;38793;52.690;6.812;2023-06-24T13:31:48;3.42;;;2.65;;
52918;SDS011;38793;52.690;6.812;2023-06-24T13:34:14;3.03;;;2.60;;
52918;SDS011;38793;52.690;6.812;2023-06-24T13:36:40;5.72;;;2.53;;
52918;SDS011;38793;52.690;6.812;2023-06-24T13:39:06;4.68;;;1.98;;
52918;SDS011;38793;52.690;6.812;2023-06-24T13:41:34;3.88;;;2.25;;
52918;SDS011;38793;52.690;6.812;2023-06-24T13:44:03;4.35;;;2.97;;
52918;SDS011;38793;52.690;6.812;2023-06-24T13:46:29;6.03;;;1.92;;
52918;SDS011;38793;52.690;6.812;2023-06-24T13:48:56;4.50;;;1.52;;
52918;SDS011;38793;52.690;6.812;2023-06-24T13:51:23;6.07;;;1.90;;
52918;SDS011;38793;52.690;6.812;2023-06-24T13:53:50;3.78;;;2.72;;
52918;SDS011;38793;52.690;6.812;2023-06-24T13:56:17;5.28;;;1.98;;
52918;SDS011;38793;52.690;6.812;2023-06-24T13:58:44;3.45;;;2.15;;
52918;SDS011;38793;52.690;6.812;2023-06-24T14:01:10;5.03;;;2.58;;
52918;SDS011;38793;52.690;6.812;2023-06-24T14:03:35;2.47;;;2.25;;
52918;SDS011;38793;52.690;6.812;2023-06-24T14:06:01;5.25;;;2.30;;
52918;SDS011;38793;52.690;6.812;2023-06-24T14:08:28;3.15;;;2.10;;
52918;SDS011;38793;52.690;6.812;2023-06-24T14:10:57;3.85;;;3.10;;
52918;SDS011;38793;52.690;6.812;2023-06-24T14:13:24;7.18;;;2.70;;
52918;SDS011;38793;52.690;6.812;2023-06-24T14:15:51;5.07;;;2.13;;
52918;SDS011;38793;52.690;6.812;2023-06-24T14:18:18;3.20;;;1.80;;
52918;SDS011;38793;52.690;6.812;2023-06-24T14:20:44;2.80;;;2.38;;
52918;SDS011;38793;52.690;6.812;2023-06-24T14:23:09;2.15;;;1.88;;
52918;SDS011;38793;52.690;6.812;2023-06-24T14:25:35;3.08;;;2.38;;
52918;SDS011;38793;52.690;6.812;2023-06-24T14:28:02;4.20;;;1.70;;
52918;SDS011;38793;52.690;6.812;2023-06-24T14:30:29;3.17;;;1.95;;
52918;SDS011;38793;52.690;6.812;2023-06-24T14:32:54;2.80;;;1.45;;
52918;SDS011;38793;52.690;6.812;2023-06-24T14:35:20;3.30;;;2.40;;
52918;SDS011;38793;52.690;6.812;2023-06-24T14:37:45;3.42;;;1.73;;
52918;SDS011;38793;52.690;6.812;2023-06-24T14:40:11;2.88;;;1.90;;
52918;SDS011;38793;52.690;6.812;2023-06-24T14:42:37;3.25;;;1.60;;
52918;SDS011;38793;52.690;6.812;2023-06-24T14:45:02;2.92;;;1.92;;
52918;SDS011;38793;52.690;6.812;2023-06-24T14:47:28;2.00;;;1.65;;
52918;SDS011;38793;52.690;6.812;2023-06-24T14:49:54;3.15;;;2.08;;
52918;SDS011;38793;52.690;6.812;2023-06-24T14:52:19;2.78;;;2.30;;
52918;SDS011;38793;52.690;6.812;2023-06-24T14:54:46;2.72;;;1.88;;
52918;SDS011;38793;52.690;6.812;2023-06-24T14:57:12;2.67;;;2.35;;
52918;SDS011;38793;52.690;6.812;2023-06-24T14:59:37;3.30;;;2.20;;
52918;SDS011;38793;52.690;6.812;2023-06-24T15:02:03;2.20;;;2.00;;
52918;SDS011;38793;52.690;6.812;2023-06-24T15:04:29;3.95;;;2.42;;
52918;SDS011;38793;52.690;6.812;2023-06-24T15:06:54;4.65;;;2.40;;
52918;SDS011;38793;52.690;6.812;2023-06-24T15:09:21;3.17;;;2.40;;
52918;SDS011;38793;52.690;6.812;2023-06-24T15:11:48;6.55;;;2.85;;
52918;SDS011;38793;52.690;6.812;2023-06-24T15:14:13;3.97;;;2.45;;
52918;SDS011;38793;52.690;6.812;2023-06-24T15:16:39;3.17;;;2.33;;
52918;SDS011;38793;52.690;6.812;2023-06-24T15:19:04;2.75;;;2.55;;
52918;SDS011;38793;52.690;6.812;2023-06-24T15:21:30;3.00;;;2.75;;
52918;SDS011;38793;52.690;6.812;2023-06-24T15:23:56;3.05;;;2.83;;
52918;SDS011;38793;52.690;6.812;2023-06-24T15:26:21;3.90;;;2.85;;
52918;SDS011;38793;52.690;6.812;2023-06-24T15:28:47;6.35;;;3.28;;
52918;SDS011;38793;52.690;6.812;2023-06-24T15:31:13;3.28;;;2.78;;
52918;SDS011;38793;52.690;6.812;2023-06-24T15:33:39;2.63;;;2.25;;
52918;SDS011;38793;52.690;6.812;2023-06-24T15:36:04;3.30;;;2.55;;
52918;SDS011;38793;52.690;6.812;2023-06-24T15:38:30;3.33;;;2.85;;
52918;SDS011;38793;52.690;6.812;2023-06-24T15:40:55;3.63;;;2.80;;
52918;SDS011;38793;52.690;6.812;2023-06-24T15:43:21;3.25;;;2.78;;